Time;durP1;ratioP1;P1;durP2;ratioP2;P2;SDS_P1;SDS_P2;PMS_P1;PMS_P2;Temp;Humidity;BMP_temperature;BMP_pressure;BME280_temperature;BME280_humidity;BME280_pressure;Samples;Min_cycle;Max_cycle;Signal;HPM_P1;HPM_P2
2022/09/21 00:00:05;;;;;;;2.58;2.25;;;8.70;99.90;;;;;;5039669;28;20078;-78
2022/09/21 00:02:31;;;;;;;5.40;2.83;;;8.70;99.90;;;;;;5034244;28;20198;-77
2022/09/21 00:04:56;;;;;;;5.03;2.63;;;8.70;99.90;;;;;;5031248;28;20489;-79
2022/09/21 00:07:22;;;;;;;2.78;2.17;;;8.60;99.90;;;;;;5035391;28;20053;-78
2022/09/21 00:09:48;;;;;;;3.72;2.65;;;8.60;99.90;;;;;;5034370;28;20048;-78
2022/09/21 00:12:15;;;;;;;4.97;2.63;;;8.60;99.90;;;;;;5036604;28;20508;-79
2022/09/21 00:14:42;;;;;;;5.55;2.30;;;8.60;99.90;;;;;;5036359;28;20055;-78
2022/09/21 00:17:08;;;;;;;3.75;2.35;;;8.50;99.90;;;;;;5036677;28;20156;-78
2022/09/21 00:19:34;;;;;;;3.75;2.13;;;8.50;99.90;;;;;;5036066;28;20102;-79
2022/09/21 00:22:00;;;;;;;5.32;2.38;;;8.40;99.90;;;;;;5033672;28;20627;-78
2022/09/21 00:24:26;;;;;;;4.85;2.85;;;8.40;99.90;;;;;;5034811;28;20040;-79
2022/09/21 00:26:52;;;;;;;4.10;2.40;;;8.40;99.90;;;;;;5035724;28;20390;-79
2022/09/21 00:29:18;;;;;;;2.75;2.38;;;8.40;99.90;;;;;;5036424;28;20061;-78
2022/09/21 00:31:44;;;;;;;2.78;2.55;;;8.40;99.90;;;;;;5032777;28;20840;-76
2022/09/21 00:34:10;;;;;;;3.67;2.60;;;8.40;99.90;;;;;;5036349;28;20080;-78
2022/09/21 00:36:35;;;;;;;3.35;2.42;;;8.30;99.90;;;;;;5034849;28;20036;-79
2022/09/21 00:39:02;;;;;;;6.50;2.08;;;8.30;99.90;;;;;;5035869;28;20079;-78
2022/09/21 00:41:30;;;;;;;3.35;2.70;;;8.30;99.90;;;;;;5036460;28;20048;-78
2022/09/21 00:44:15;;;;;;;3.83;2.17;;;8.30;99.90;;;;;;5036658;28;20057;-79
2022/09/21 00:46:42;;;;;;;2.70;2.08;;;8.30;99.90;;;;;;5036468;28;20044;-78
2022/09/21 00:49:08;;;;;;;3.35;2.20;;;8.30;99.90;;;;;;5018797;28;20389;-78
2022/09/21 00:51:35;;;;;;;5.22;2.75;;;8.30;99.90;;;;;;5035979;28;20053;-78
2022/09/21 00:54:11;;;;;;;3.55;2.55;;;8.30;99.90;;;;;;5035254;28;20049;-79
2022/09/21 00:56:37;;;;;;;3.35;2.30;;;8.30;99.90;;;;;;5035243;28;20045;-78
2022/09/21 00:59:04;;;;;;;4.18;2.97;;;8.30;99.90;;;;;;5036884;28;20418;-76
2022/09/21 01:01:31;;;;;;;3.33;1.92;;;8.30;99.90;;;;;;5036869;28;20169;-76
2022/09/21 01:03:57;;;;;;;6.13;2.75;;;8.30;99.90;;;;;;5040178;28;20045;-76
2022/09/21 01:06:24;;;;;;;2.67;2.45;;;8.30;99.90;;;;;;5037105;28;20088;-79
2022/09/21 01:08:54;;;;;;;3.33;3.00;;;8.30;99.90;;;;;;5040701;28;20052;-78
2022/09/21 01:11:40;;;;;;;7.25;2.95;;;8.30;99.90;;;;;;5038413;28;20120;-76
2022/09/21 01:14:28;;;;;;;3.03;2.20;;;8.30;99.90;;;;;;5038981;28;20061;-79
2022/09/21 01:17:12;;;;;;;4.70;2.35;;;8.30;99.90;;;;;;5040181;28;21234;-79
2022/09/21 01:19:52;;;;;;;5.20;2.10;;;8.30;99.90;;;;;;5039404;28;20052;-78
2022/09/21 01:22:29;;;;;;;3.95;2.80;;;8.30;99.90;;;;;;5039469;28;20057;-79
2022/09/21 01:25:41;;;;;;;6.75;2.47;;;8.30;99.90;;;;;;5038716;28;20158;-79
2022/09/21 01:28:32;;;;;;;5.78;2.85;;;8.30;99.90;;;;;;5028778;28;20114;-79
2022/09/21 01:31:04;;;;;;;6.88;2.63;;;8.30;99.90;;;;;;5039067;28;20049;-79
2022/09/21 01:33:38;;;;;;;3.67;2.30;;;8.30;99.90;;;;;;5040229;28;20071;-79
2022/09/21 01:36:06;;;;;;;;;;;8.30;99.90;;;;;;5040617;28;20049;-79
2022/09/21 01:38:40;;;;;;;5.43;2.13;;;8.30;99.90;;;;;;5053045;28;20422;-78
2022/09/21 01:41:11;;;;;;;4.47;2.83;;;8.30;99.90;;;;;;5039347;28;20053;-79
2022/09/21 01:43:40;;;;;;;4.13;2.70;;;8.30;99.90;;;;;;5038435;28;20779;-79
2022/09/21 01:46:12;;;;;;;4.28;3.10;;;8.20;99.90;;;;;;5038340;28;20154;-79
2022/09/21 01:48:43;;;;;;;8.15;2.90;;;8.20;99.90;;;;;;5034870;28;20149;-79
2022/09/21 01:51:12;;;;;;;5.53;2.80;;;8.20;99.90;;;;;;5039900;28;20123;-78
2022/09/21 01:53:50;;;;;;;5.45;2.70;;;8.20;99.90;;;;;;5038589;28;20128;-78
2022/09/21 01:56:26;;;;;;;3.88;2.20;;;8.20;99.90;;;;;;5039418;28;20895;-78
2022/09/21 01:59:26;;;;;;;6.65;2.72;;;8.20;99.90;;;;;;5039731;28;20080;-78
2022/09/21 02:02:02;;;;;;;2.78;1.98;;;8.20;99.90;;;;;;5035209;28;20084;-78
2022/09/21 02:04:28;;;;;;;3.22;2.28;;;8.20;99.90;;;;;;5040409;28;20053;-79
2022/09/21 02:06:54;;;;;;;3.55;2.35;;;8.20;99.90;;;;;;5037829;28;20357;-79
2022/09/21 02:09:20;;;;;;;6.43;2.83;;;8.20;99.90;;;;;;5038346;28;20090;-79
2022/09/21 02:11:45;;;;;;;6.07;2.75;;;8.20;99.90;;;;;;5035682;28;20767;-79
2022/09/21 02:14:21;;;;;;;2.33;2.00;;;8.20;99.90;;;;;;5021194;28;20049;-78
2022/09/21 02:17:27;;;;;;;4.32;1.95;;;8.20;99.90;;;;;;5034547;28;20138;-78
2022/09/21 02:20:12;;;;;;;3.25;2.03;;;8.20;99.90;;;;;;5039838;28;20849;-79
2022/09/21 02:22:59;;;;;;;2.75;2.28;;;8.20;99.90;;;;;;5039554;28;20125;-78
2022/09/21 02:25:32;;;;;;;3.35;1.55;;;8.20;99.90;;;;;;5039705;28;20045;-78
2022/09/21 02:28:03;;;;;;;;;;;8.10;99.90;;;;;;5039389;28;20150;-79
2022/09/21 02:30:32;;;;;;;2.40;2.17;;;8.10;99.90;;;;;;5037662;28;20327;-79
2022/09/21 02:33:08;;;;;;;3.72;2.50;;;8.00;99.90;;;;;;5025451;28;20054;-79
2022/09/21 02:35:37;;;;;;;4.05;2.30;;;8.00;99.90;;;;;;5029211;28;20072;-78
2022/09/21 02:38:14;;;;;;;4.40;2.42;;;7.90;99.90;;;;;;5036087;28;20370;-78
2022/09/21 02:40:55;;;;;;;2.03;1.85;;;7.90;99.90;;;;;;5035075;28;21478;-78
2022/09/21 02:43:30;;;;;;;3.03;2.20;;;7.90;99.90;;;;;;5039118;28;20794;-78
2022/09/21 02:46:10;;;;;;;2.95;1.63;;;7.80;99.90;;;;;;5037512;28;20049;-78
2022/09/21 02:48:42;;;;;;;4.78;2.40;;;7.80;99.90;;;;;;5038441;28;20048;-78
2022/09/21 02:51:16;;;;;;;3.08;2.03;;;7.70;99.90;;;;;;5035538;28;20152;-78
2022/09/21 02:53:43;;;;;;;4.50;2.83;;;7.90;99.90;;;;;;5033769;28;20119;-78
2022/09/21 02:56:10;;;;;;;4.00;2.30;;;7.70;99.90;;;;;;5038420;28;20091;-78
2022/09/21 02:58:46;;;;;;;4.05;2.33;;;7.70;99.90;;;;;;5053418;28;20056;-78
2022/09/21 03:01:14;;;;;;;2.70;2.03;;;7.70;99.90;;;;;;5038077;28;20510;-78
2022/09/21 03:03:40;;;;;;;3.20;1.95;;;7.60;99.90;;;;;;5037462;28;20052;-78
2022/09/21 03:06:06;;;;;;;1.67;1.58;;;7.60;99.90;;;;;;5036212;28;20100;-78
2022/09/21 03:08:32;;;;;;;2.47;2.22;;;7.60;99.90;;;;;;5031774;28;20183;-78
2022/09/21 03:10:57;;;;;;;2.95;2.00;;;7.50;99.90;;;;;;5038153;28;20095;-78
2022/09/21 03:13:24;;;;;;;3.40;1.90;;;7.50;99.90;;;;;;5037684;28;20049;-78
2022/09/21 03:16:01;;;;;;;2.33;2.10;;;7.60;99.90;;;;;;5038612;28;20053;-78
2022/09/21 03:18:27;;;;;;;3.45;2.22;;;7.50;99.90;;;;;;5045356;28;20084;-78
2022/09/21 03:20:53;;;;;;;2.92;2.05;;;7.60;99.90;;;;;;5038076;28;20037;-78
2022/09/21 03:23:18;;;;;;;3.90;2.15;;;7.80;99.90;;;;;;5033953;28;20101;-78
2022/09/21 03:25:45;;;;;;;2.80;2.17;;;7.40;99.90;;;;;;5033775;28;20051;-78
2022/09/21 03:28:12;;;;;;;3.65;2.38;;;7.50;99.90;;;;;;5033233;28;20049;-78
2022/09/21 03:30:38;;;;;;;2.55;2.08;;;7.20;99.90;;;;;;5032059;28;20053;-78
2022/09/21 03:33:04;;;;;;;3.58;2.22;;;7.20;99.90;;;;;;5037348;28;20111;-78
2022/09/21 03:35:34;;;;;;;1.77;1.67;;;7.20;99.90;;;;;;5038685;28;20128;-78
2022/09/21 03:38:01;;;;;;;4.72;2.10;;;7.20;99.90;;;;;;5031187;28;20750;-78
2022/09/21 03:40:27;;;;;;;4.32;2.42;;;7.20;99.90;;;;;;5035680;28;20076;-78
2022/09/21 03:42:53;;;;;;;2.00;1.75;;;7.20;99.90;;;;;;5037796;28;20152;-78
2022/09/21 03:45:26;;;;;;;4.38;2.60;;;7.20;99.90;;;;;;5035048;28;20064;-78
2022/09/21 03:47:56;;;;;;;3.15;2.00;;;7.10;99.90;;;;;;5047265;28;20141;-79
2022/09/21 03:50:23;;;;;;;3.45;2.08;;;7.20;99.90;;;;;;5033097;28;20071;-78
2022/09/21 03:52:49;;;;;;;3.13;2.45;;;7.10;99.90;;;;;;5035352;28;20443;-78
2022/09/21 03:55:15;;;;;;;4.57;2.20;;;7.20;99.90;;;;;;5035939;28;20049;-78
2022/09/21 03:57:40;;;;;;;6.43;2.30;;;7.10;99.90;;;;;;5037256;28;20087;-78
2022/09/21 04:00:09;;;;;;;2.65;1.70;;;7.10;99.90;;;;;;5035344;28;20127;-78
2022/09/21 04:02:36;;;;;;;3.00;2.42;;;7.00;99.90;;;;;;5031200;28;20088;-78
2022/09/21 04:05:02;;;;;;;2.50;1.77;;;7.10;99.90;;;;;;5032703;28;20055;-78
2022/09/21 04:07:34;;;;;;;16.23;3.30;;;7.10;99.90;;;;;;5036218;28;20052;-78
2022/09/21 04:10:05;;;;;;;2.57;2.20;;;7.00;99.90;;;;;;5033729;28;20053;-78
2022/09/21 04:12:33;;;;;;;4.25;2.40;;;7.10;99.90;;;;;;5036476;28;20284;-78
2022/09/21 04:15:06;;;;;;;3.97;2.28;;;7.10;99.90;;;;;;5026397;28;20117;-78
2022/09/21 04:17:32;;;;;;;2.83;2.40;;;7.30;99.90;;;;;;5038180;28;20049;-78
2022/09/21 04:19:59;;;;;;;3.92;2.15;;;7.00;99.90;;;;;;5036851;28;20124;-78
2022/09/21 04:22:24;;;;;;;6.28;2.53;;;6.90;99.90;;;;;;5037776;28;20088;-78
2022/09/21 04:24:51;;;;;;;3.63;2.35;;;6.90;99.90;;;;;;5029851;28;20145;-78
2022/09/21 04:27:17;;;;;;;5.20;2.47;;;6.90;99.90;;;;;;5031269;28;20128;-78
2022/09/21 04:29:43;;;;;;;2.15;1.95;;;6.90;99.90;;;;;;5037565;28;20037;-78
2022/09/21 04:32:09;;;;;;;3.90;2.03;;;7.20;99.90;;;;;;5038414;28;20079;-78
2022/09/21 04:34:38;;;;;;;3.22;2.55;;;6.80;99.90;;;;;;5027204;28;20092;-78
2022/09/21 04:37:07;;;;;;;4.13;2.15;;;7.00;99.90;;;;;;5029596;28;20048;-79
2022/09/21 04:39:33;;;;;;;2.13;1.95;;;6.70;99.90;;;;;;5034544;28;20056;-78
2022/09/21 04:41:59;;;;;;;3.97;2.20;;;6.70;99.90;;;;;;5038426;28;20115;-79
2022/09/21 04:44:24;;;;;;;4.78;3.17;;;6.60;99.90;;;;;;5034992;28;20051;-78
2022/09/21 04:46:50;;;;;;;3.47;2.20;;;6.70;99.90;;;;;;5036764;28;20055;-78
2022/09/21 04:49:16;;;;;;;2.47;2.20;;;6.60;99.90;;;;;;5038786;28;20122;-78
2022/09/21 04:51:41;;;;;;;3.42;2.30;;;6.80;99.90;;;;;;5038254;28;20040;-78
2022/09/21 04:54:07;;;;;;;4.53;2.42;;;6.80;99.90;;;;;;5040019;28;20048;-78
2022/09/21 04:56:33;;;;;;;3.00;2.05;;;6.80;99.90;;;;;;5039943;28;20424;-78
2022/09/21 04:58:59;;;;;;;2.90;2.60;;;7.00;99.90;;;;;;5038846;28;20794;-83
2022/09/21 05:01:25;;;;;;;4.07;2.35;;;6.70;99.90;;;;;;5039416;28;20045;-79
2022/09/21 05:03:50;;;;;;;2.97;2.67;;;6.70;99.90;;;;;;5037675;28;20048;-79
2022/09/21 05:06:16;;;;;;;5.28;2.80;;;6.70;99.90;;;;;;5040252;28;20079;-80
2022/09/21 05:11:26;;;;;;;3.60;2.42;;;6.70;99.90;;;;;;5038498;28;20057;-80
2022/09/21 05:13:52;;;;;;;4.18;2.42;;;6.80;99.90;;;;;;5037692;28;20933;-77
2022/09/21 05:16:18;;;;;;;2.50;2.30;;;6.80;99.90;;;;;;5039566;28;20139;-81
2022/09/21 05:18:45;;;;;;;3.25;2.30;;;6.80;99.90;;;;;;5035717;28;20130;-82
2022/09/21 05:21:12;;;;;;;3.78;2.30;;;6.80;99.90;;;;;;5039109;28;20634;-80
2022/09/21 05:23:38;;;;;;;3.63;2.20;;;6.80;99.90;;;;;;5032042;28;20215;-82
2022/09/21 05:26:04;;;;;;;2.35;2.15;;;6.80;99.90;;;;;;5040824;28;20782;-81
2022/09/21 05:28:30;;;;;;;3.30;2.60;;;6.80;99.90;;;;;;5037641;28;20049;-78
2022/09/21 05:31:03;;;;;;;4.20;2.50;;;6.80;99.90;;;;;;5039946;28;20067;-81
2022/09/21 05:33:33;;;;;;;3.03;2.40;;;6.80;99.90;;;;;;5040386;28;20041;-78
2022/09/21 05:36:16;;;;;;;3.20;2.20;;;6.80;99.90;;;;;;5038841;28;20130;-82
2022/09/21 05:38:42;;;;;;;7.20;3.13;;;6.80;99.90;;;;;;5032075;28;20076;-79
2022/09/21 05:41:08;;;;;;;5.43;2.75;;;6.80;99.90;;;;;;5036132;28;20148;-79
2022/09/21 05:43:34;;;;;;;3.35;2.58;;;6.70;99.90;;;;;;5037899;28;20044;-82
2022/09/21 05:46:28;;;;;;;3.60;2.88;;;6.60;99.90;;;;;;5035825;28;20092;-79
2022/09/21 05:48:58;;;;;;;;;;;6.60;99.90;;;;;;5037725;28;20056;-80
2022/09/21 05:51:43;;;;;;;3.05;2.22;;;6.60;99.90;;;;;;5052844;28;19925;-79
2022/09/21 05:54:25;;;;;;;3.38;2.38;;;6.70;99.90;;;;;;5038555;28;20088;-78
2022/09/21 05:57:22;;;;;;;4.57;2.42;;;6.80;99.90;;;;;;5038148;28;20049;-80
2022/09/21 06:00:01;;;;;;;4.68;2.70;;;6.80;99.90;;;;;;5033628;28;20060;-79
2022/09/21 06:02:45;;;;;;;4.10;2.72;;;6.80;99.90;;;;;;5034549;28;20053;-80
2022/09/21 06:05:12;;;;;;;2.50;2.25;;;6.70;99.90;;;;;;5036273;28;20072;-79
2022/09/21 06:07:38;;;;;;;3.70;2.83;;;6.80;99.90;;;;;;5034786;28;20058;-79
2022/09/21 06:10:04;;;;;;;4.28;2.65;;;6.90;99.90;;;;;;5038255;28;20461;-79
2022/09/21 06:12:30;;;;;;;3.83;2.50;;;7.00;99.90;;;;;;5036240;28;20049;-80
2022/09/21 06:14:55;;;;;;;5.90;3.30;;;7.00;99.90;;;;;;5036793;28;20860;-78
2022/09/21 06:17:21;;;;;;;3.53;2.90;;;7.00;99.90;;;;;;5036675;28;20151;-80
2022/09/21 06:19:47;;;;;;;3.08;2.28;;;7.00;99.90;;;;;;5038705;28;20060;-79
2022/09/21 06:22:13;;;;;;;3.30;2.50;;;7.20;99.90;;;;;;5037015;28;20053;-80
2022/09/21 06:24:38;;;;;;;2.97;2.10;;;7.20;99.90;;;;;;5038469;28;20052;-79
2022/09/21 06:27:04;;;;;;;2.85;2.38;;;7.20;99.90;;;;;;5036618;28;20156;-80
2022/09/21 06:29:30;;;;;;;4.20;2.33;;;7.30;99.90;;;;;;5035310;28;20048;-80
2022/09/21 06:31:56;;;;;;;3.33;2.30;;;7.40;99.90;;;;;;5035557;28;20083;-80
2022/09/21 06:34:22;;;;;;;2.92;2.00;;;7.40;99.90;;;;;;5035048;28;20087;-80
2022/09/21 06:36:47;;;;;;;3.25;2.00;;;7.50;99.90;;;;;;5036475;28;20493;-81
2022/09/21 06:39:13;;;;;;;3.78;2.30;;;7.50;99.90;;;;;;5035893;28;20045;-80
2022/09/21 06:41:39;;;;;;;2.67;2.35;;;7.90;99.90;;;;;;5036264;28;20053;-79
2022/09/21 06:44:04;;;;;;;3.50;3.13;;;7.60;99.90;;;;;;5033748;28;20827;-78
2022/09/21 06:46:30;;;;;;;3.00;2.50;;;7.70;99.90;;;;;;5035660;28;20052;-79
2022/09/21 06:48:56;;;;;;;5.75;2.80;;;7.90;99.90;;;;;;5033128;28;20045;-79
2022/09/21 06:51:22;;;;;;;3.63;2.78;;;7.90;99.90;;;;;;5035390;28;20052;-78
2022/09/21 06:53:52;;;;;;;6.20;3.55;;;8.00;99.90;;;;;;5035397;28;20052;-78
2022/09/21 06:56:18;;;;;;;6.65;3.30;;;8.10;99.90;;;;;;5035192;28;20044;-79
2022/09/21 06:58:46;;;;;;;3.50;3.00;;;8.20;99.90;;;;;;5035130;28;20099;-86
2022/09/21 07:01:13;;;;;;;4.97;3.47;;;8.30;99.90;;;;;;5036261;28;20057;-78
2022/09/21 07:03:42;;;;;;;5.88;4.05;;;8.40;99.90;;;;;;5038497;28;20159;-79
2022/09/21 07:06:10;;;;;;;7.90;4.60;;;9.00;99.90;;;;;;5040064;28;20076;-79
2022/09/21 07:08:38;;;;;;;4.82;4.32;;;8.70;99.90;;;;;;5036776;28;20052;-79
2022/09/21 07:11:05;;;;;;;6.97;4.15;;;8.80;99.90;;;;;;5039426;28;20055;-78
2022/09/21 07:13:30;;;;;;;9.00;4.40;;;8.90;99.90;;;;;;5036545;28;20049;-79
2022/09/21 07:15:56;;;;;;;8.07;3.88;;;9.10;99.90;;;;;;5039794;28;20048;-78
2022/09/21 07:18:22;;;;;;;5.18;3.83;;;9.20;99.90;;;;;;5038111;28;20044;-78
2022/09/21 07:20:48;;;;;;;9.63;4.00;;;9.30;99.90;;;;;;5037561;28;20049;-79
2022/09/21 07:23:18;;;;;;;5.10;3.88;;;9.40;99.90;;;;;;5038216;28;20168;-79
2022/09/21 07:25:48;;;;;;;5.45;3.88;;;9.60;99.90;;;;;;5038842;28;20052;-78
2022/09/21 07:28:15;;;;;;;5.75;3.33;;;9.70;99.90;;;;;;5038424;28;20560;-78
2022/09/21 07:30:41;;;;;;;7.95;3.30;;;9.90;99.90;;;;;;5038561;28;20134;-78
2022/09/21 07:33:07;;;;;;;5.93;3.38;;;10.10;99.90;;;;;;5027372;28;20049;-77
2022/09/21 07:35:33;;;;;;;5.75;3.28;;;10.20;99.90;;;;;;5037209;28;20134;-78
2022/09/21 07:38:01;;;;;;;6.22;2.83;;;10.70;99.90;;;;;;5038721;28;20056;-79
2022/09/21 07:40:27;;;;;;;3.45;2.75;;;12.30;99.90;;;;;;5038146;28;20036;-78
2022/09/21 07:42:57;;;;;;;5.43;3.45;;;14.20;99.90;;;;;;5036355;28;20238;-78
2022/09/21 07:45:24;;;;;;;5.35;2.80;;;16.10;99.90;;;;;;5036980;28;20108;-78
2022/09/21 07:47:49;;;;;;;6.22;2.45;;;17.60;99.90;;;;;;5036237;28;20127;-79
2022/09/21 07:50:15;;;;;;;5.32;2.20;;;19.00;99.90;;;;;;5036278;28;20044;-79
2022/09/21 07:52:41;;;;;;;4.07;2.72;;;20.20;99.90;;;;;;5037671;28;20057;-79
2022/09/21 07:55:07;;;;;;;3.58;2.40;;;21.10;99.90;;;;;;5039035;28;20055;-80
2022/09/21 08:00:17;;;;;;;9.40;3.10;;;22.70;99.90;;;;;;5037810;28;20083;-81
2022/09/21 08:02:42;;;;;;;5.75;2.30;;;23.10;99.90;;;;;;5039031;28;20722;-76
2022/09/21 08:05:08;;;;;;;3.55;2.17;;;23.40;99.90;;;;;;5038628;28;20057;-77
2022/09/21 08:07:34;;;;;;;3.35;2.17;;;23.50;99.90;;;;;;5037649;28;20041;-70
2022/09/21 08:09:59;;;;;;;2.65;1.90;;;24.10;99.90;;;;;;5037822;28;20051;-73
2022/09/21 08:12:25;;;;;;;4.07;1.70;;;24.60;99.50;;;;;;5037211;28;20094;-72
2022/09/21 08:14:51;;;;;;;6.70;1.75;;;24.90;97.70;;;;;;5037366;28;20053;-69
2022/09/21 08:17:16;;;;;;;4.07;1.50;;;25.00;96.40;;;;;;5037051;28;20044;-75
2022/09/21 08:19:42;;;;;;;6.38;2.10;;;25.40;95.80;;;;;;5036204;28;20052;-78
2022/09/21 08:22:08;;;;;;;4.32;1.77;;;25.60;95.20;;;;;;5037215;28;20049;-72
2022/09/21 08:24:34;;;;;;;5.35;1.63;;;25.90;94.10;;;;;;5031718;28;20044;-76
2022/09/21 08:27:00;;;;;;;2.63;1.48;;;25.80;93.00;;;;;;5038025;28;20087;-75
2022/09/21 08:29:26;;;;;;;4.90;1.52;;;26.10;92.60;;;;;;5036183;28;20083;-75
2022/09/21 08:31:52;;;;;;;4.45;1.55;;;26.40;92.00;;;;;;5037302;28;20482;-75
2022/09/21 08:34:18;;;;;;;6.97;1.70;;;26.40;91.00;;;;;;5036061;28;20095;-75
2022/09/21 08:36:45;;;;;;;4.30;1.42;;;26.30;90.30;;;;;;5035024;28;20049;-79
2022/09/21 08:39:11;;;;;;;3.38;1.50;;;25.70;86.30;;;;;;5035890;28;20908;-78
2022/09/21 08:41:48;;;;;;;4.32;1.48;;;25.80;88.30;;;;;;5036636;28;20057;-77
2022/09/21 08:44:22;;;;;;;4.55;1.50;;;26.10;86.90;;;;;;5035555;28;20091;-78
2022/09/21 08:47:08;;;;;;;6.32;1.52;;;26.50;86.30;;;;;;5030595;28;20106;-71
2022/09/21 08:49:37;;;;;;;3.92;1.98;;;26.80;81.80;;;;;;5033371;28;20041;-75
2022/09/21 08:52:06;;;;;;;6.97;1.80;;;26.60;85.50;;;;;;5032791;28;20400;-77
2022/09/21 08:54:43;;;;;;;3.10;1.55;;;26.60;81.20;;;;;;5038537;28;20052;-76
2022/09/21 08:57:13;;;;;;;4.05;1.50;;;26.40;84.20;;;;;;5036597;28;20048;-74
2022/09/21 08:59:45;;;;;;;2.25;1.40;;;26.20;81.10;;;;;;5034751;28;20049;-76
2022/09/21 09:02:37;;;;;;;5.22;1.48;;;26.60;82.50;;;;;;5034781;28;20055;-75
2022/09/21 09:05:11;;;;;;;3.88;1.95;;;26.90;78.30;;;;;;5034966;28;20052;-76
2022/09/21 09:07:51;;;;;;;3.47;1.17;;;26.60;76.50;;;;;;5033496;28;20045;-76
2022/09/21 09:10:42;;;;;;;5.15;1.27;;;26.50;78.80;;;;;;5034778;28;20130;-76
2022/09/21 09:13:44;;;;;;;6.63;1.33;;;26.70;74.30;;;;;;5034060;28;20580;-76
2022/09/21 09:16:28;;;;;;;2.20;1.05;;;25.70;75.40;;;;;;5037656;28;20144;-76
2022/09/21 09:19:05;;;;;;;4.13;1.10;;;25.90;80.60;;;;;;5037586;28;20052;-76
2022/09/21 09:21:37;;;;;;;3.42;1.10;;;26.00;76.70;;;;;;5037366;28;20041;-76
2022/09/21 09:24:11;;;;;;;2.13;0.88;;;26.50;79.20;;;;;;5039095;28;20158;-77
2022/09/21 09:26:54;;;;;;;1.77;0.90;;;26.40;78.60;;;;;;5037928;28;20060;-76
2022/09/21 09:29:37;;;;;;;;;;;24.60;75.40;;;;;;5035027;28;20076;-77
2022/09/21 09:32:09;;;;;;;2.95;1.08;;;23.20;77.40;;;;;;5037112;28;19948;-79
2022/09/21 09:34:48;;;;;;;3.53;0.80;;;22.10;83.40;;;;;;5042077;28;20079;-80
2022/09/21 09:37:16;;;;;;;2.55;1.00;;;21.30;84.60;;;;;;5038133;28;20062;-77
2022/09/21 09:39:52;;;;;;;2.00;1.20;;;21.30;85.50;;;;;;5039998;28;20766;-77
2022/09/21 09:42:31;;;;;;;3.10;0.90;;;22.80;83.80;;;;;;5035785;28;20049;-77
2022/09/21 09:45:30;;;;;;;2.85;1.13;;;23.50;82.30;;;;;;5039614;28;20645;-77
2022/09/21 09:48:17;;;;;;;7.65;1.33;;;25.00;80.40;;;;;;5039528;28;20049;-77
2022/09/21 09:50:43;;;;;;;1.88;0.65;;;25.50;73.30;;;;;;5037293;28;20044;-77
2022/09/21 09:53:23;;;;;;;3.80;1.48;;;25.70;77.90;;;;;;5038004;28;20049;-77
2022/09/21 09:55:54;;;;;;;3.53;1.00;;;25.70;77.00;;;;;;5038543;28;20087;-78
2022/09/21 09:59:05;;;;;;;2.42;1.17;;;25.60;75.50;;;;;;5036534;28;20072;-78
2022/09/21 10:01:40;;;;;;;4.55;1.02;;;25.20;72.00;;;;;;5035648;28;20095;-78
2022/09/21 10:04:11;;;;;;;3.17;1.10;;;25.00;75.50;;;;;;5035630;28;20110;-78
2022/09/21 10:06:37;;;;;;;3.80;1.23;;;24.50;76.10;;;;;;5037837;28;20775;-78
2022/09/21 10:09:25;;;;;;;2.00;1.00;;;23.70;77.30;;;;;;5036338;28;20793;-77
2022/09/21 10:11:53;;;;;;;3.92;1.80;;;22.70;76.80;;;;;;5036904;28;20049;-76
2022/09/21 10:14:25;;;;;;;4.05;1.67;;;21.50;80.70;;;;;;5038224;28;20179;-74
2022/09/21 10:16:54;;;;;;;2.33;0.80;;;20.70;81.80;;;;;;5036951;28;20459;-73
2022/09/21 10:19:23;;;;;;;2.15;1.00;;;20.10;83.30;;;;;;5037803;28;20083;-75
2022/09/21 10:21:57;;;;;;;2.65;1.15;;;20.30;84.20;;;;;;5037732;28;20525;-74
2022/09/21 10:24:32;;;;;;;3.25;1.30;;;20.80;80.80;;;;;;5036867;28;20048;-74
2022/09/21 10:27:04;;;;;;;2.25;1.73;;;21.50;79.90;;;;;;5034393;28;20099;-77
2022/09/21 10:29:39;;;;;;;3.17;0.98;;;22.20;78.00;;;;;;5035821;28;20037;-77
2022/09/21 10:32:17;;;;;;;1.58;0.85;;;22.40;78.00;;;;;;5035954;28;20216;-77
2022/09/21 10:35:03;;;;;;;3.28;0.80;;;23.40;76.60;;;;;;5036844;28;20049;-71
2022/09/21 10:37:52;;;;;;;3.85;1.00;;;24.00;73.30;;;;;;5032210;28;20061;-81
2022/09/21 10:40:20;;;;;;;3.05;1.08;;;23.90;73.60;;;;;;5034396;28;20049;-79
2022/09/21 10:42:49;;;;;;;3.70;0.90;;;22.70;75.00;;;;;;5039653;28;20103;-70
2022/09/21 10:45:21;;;;;;;3.20;1.02;;;21.70;77.10;;;;;;5030837;28;20095;-69
2022/09/21 11:47:50;;;;;;;1.48;0.95;;;18.50;81.20;;;;;;5067136;27;20501;-74
2022/09/21 11:50:37;;;;;;;1.10;1.00;;;18.00;83.90;;;;;;5060133;28;20061;-73
2022/09/21 11:53:13;;;;;;;1.45;1.00;;;18.00;79.70;;;;;;5064735;28;20135;-75
2022/09/21 11:56:17;;;;;;;2.80;0.75;;;18.00;82.50;;;;;;5069256;28;20060;-75
2022/09/21 11:59:04;;;;;;;2.25;1.00;;;18.00;82.60;;;;;;5061436;28;20159;-74
2022/09/21 12:01:59;;;;;;;3.33;1.00;;;17.90;82.60;;;;;;5074496;28;20069;-75
2022/09/21 12:04:39;;;;;;;2.03;0.73;;;17.90;83.40;;;;;;5063999;28;20048;-75
2022/09/21 12:07:29;;;;;;;1.27;0.70;;;17.80;83.30;;;;;;5072412;28;20122;-74
2022/09/21 12:10:15;;;;;;;1.30;0.85;;;17.90;83.50;;;;;;5073322;28;20081;-74
2022/09/21 12:12:58;;;;;;;3.60;1.00;;;18.00;84.40;;;;;;5058067;28;20514;-75
2022/09/21 12:15:33;;;;;;;2.13;1.02;;;18.00;82.70;;;;;;5056673;28;20206;-76
2022/09/21 12:18:11;;;;;;;2.40;0.95;;;18.10;83.40;;;;;;5073388;28;20047;-75
2022/09/21 12:20:43;;;;;;;1.65;0.90;;;18.10;83.70;;;;;;5060204;28;20056;-74
2022/09/21 12:23:49;;;;;;;2.65;0.95;;;18.20;83.30;;;;;;5066717;28;20049;-75
2022/09/21 12:26:27;;;;;;;2.00;0.90;;;18.30;83.30;;;;;;5069344;28;20049;-74
2022/09/21 12:29:26;;;;;;;2.38;0.93;;;18.50;82.50;;;;;;5071699;28;20182;-75
2022/09/21 12:32:03;;;;;;;1.95;1.10;;;18.60;83.40;;;;;;5068712;28;20167;-75
2022/09/21 12:34:39;;;;;;;1.20;0.82;;;18.70;83.30;;;;;;5069805;28;20116;-76
2022/09/21 12:37:30;;;;;;;1.92;0.80;;;18.80;83.70;;;;;;5071326;28;20105;-74
2022/09/21 12:40:14;;;;;;;4.85;1.08;;;18.80;83.50;;;;;;5071049;28;20115;-74
2022/09/21 12:43:18;;;;;;;3.47;1.10;;;18.70;83.40;;;;;;5071392;28;20052;-75
2022/09/21 12:45:57;;;;;;;2.53;1.08;;;18.70;83.20;;;;;;5059828;28;20113;-76
2022/09/21 12:48:39;;;;;;;3.45;1.08;;;18.50;82.50;;;;;;5054376;28;20130;-76
2022/09/21 12:51:10;;;;;;;0.80;0.80;;;18.40;82.90;;;;;;5050856;28;20044;-77
2022/09/21 12:53:41;;;;;;;2.90;1.15;;;18.00;83.10;;;;;;5042205;28;20095;-74
2022/09/21 12:56:30;;;;;;;2.80;1.40;;;18.00;83.70;;;;;;5052748;28;20067;-73
2022/09/21 12:59:17;;;;;;;1.98;0.75;;;18.10;84.00;;;;;;5049235;28;20044;-75
2022/09/21 13:01:46;;;;;;;2.65;0.88;;;18.10;83.00;;;;;;5046661;28;20063;-75
2022/09/21 13:04:59;;;;;;;3.47;0.57;;;18.10;82.90;;;;;;5048855;28;20059;-75
2022/09/21 13:07:44;;;;;;;3.30;0.93;;;18.10;82.90;;;;;;5051165;28;20052;-76
2022/09/21 13:10:30;;;;;;;2.00;0.80;;;18.40;83.10;;;;;;5053207;28;20052;-76
2022/09/21 13:13:01;;;;;;;1.20;0.90;;;18.50;82.50;;;;;;5043842;28;20099;-75
2022/09/21 13:15:30;;;;;;;3.08;1.13;;;18.50;84.10;;;;;;5040581;28;20174;-76
2022/09/21 13:18:04;;;;;;;2.75;1.00;;;18.60;83.40;;;;;;5045337;28;20049;-75
2022/09/21 13:20:38;;;;;;;2.78;1.08;;;18.70;84.60;;;;;;5042100;28;20049;-75
2022/09/21 13:23:05;;;;;;;3.90;1.00;;;18.70;84.60;;;;;;5053398;28;20049;-73
2022/09/21 13:25:36;;;;;;;1.08;0.70;;;18.50;84.00;;;;;;5042230;28;20052;-73
2022/09/21 13:28:12;;;;;;;1.98;0.90;;;18.60;83.20;;;;;;5051746;28;20045;-73
2022/09/21 13:30:41;;;;;;;3.33;0.88;;;18.60;82.60;;;;;;5054291;28;20060;-70
2022/09/21 13:33:19;;;;;;;3.85;1.80;;;18.80;82.60;;;;;;5051952;28;20064;-69
2022/09/21 13:36:01;;;;;;;0.98;0.77;;;18.90;82.00;;;;;;5040991;28;20786;-78
2022/09/21 13:38:44;;;;;;;1.75;0.80;;;18.90;81.20;;;;;;5039746;28;20053;-73
2022/09/21 13:41:16;;;;;;;1.00;0.85;;;18.90;81.50;;;;;;5051291;28;20048;-70
2022/09/21 13:43:55;;;;;;;2.53;1.50;;;19.00;81.80;;;;;;5051364;28;20090;-70
2022/09/21 13:46:36;;;;;;;3.30;0.68;;;19.10;81.40;;;;;;5041118;28;20059;-70
2022/09/21 13:49:12;;;;;;;2.03;0.75;;;19.10;82.20;;;;;;5056775;28;20106;-70
2022/09/21 13:52:07;;;;;;;2.45;0.90;;;19.00;82.30;;;;;;5056690;28;20064;-71
2022/09/21 13:54:44;;;;;;;2.25;1.10;;;19.10;83.40;;;;;;5047512;28;20155;-74
2022/09/21 13:57:28;;;;;;;4.57;1.60;;;19.20;82.30;;;;;;5048593;28;20480;-69
2022/09/21 14:00:04;;;;;;;1.83;1.05;;;19.40;81.40;;;;;;5047237;28;20127;-71
2022/09/21 14:02:33;;;;;;;2.08;1.00;;;19.50;81.50;;;;;;5059041;28;20102;-70
2022/09/21 14:05:23;;;;;;;1.00;0.98;;;19.50;81.20;;;;;;5038729;28;20497;-71
2022/09/21 14:08:01;;;;;;;1.73;1.17;;;19.50;81.30;;;;;;5051531;28;20052;-72
2022/09/21 14:10:29;;;;;;;2.35;1.05;;;19.60;82.40;;;;;;5046399;28;20141;-70
2022/09/21 14:12:55;;;;;;;1.10;0.75;;;19.50;83.00;;;;;;5045687;28;20076;-70
2022/09/21 14:15:20;;;;;;;3.42;0.90;;;19.50;82.50;;;;;;5049307;28;20099;-72
2022/09/21 14:18:15;;;;;;;0.95;0.75;;;19.60;82.10;;;;;;5048544;28;20563;-72
2022/09/21 14:21:16;;;;;;;3.13;1.05;;;19.60;80.70;;;;;;5047118;28;20053;-73
2022/09/21 14:24:04;;;;;;;1.90;0.77;;;19.60;80.40;;;;;;5045306;28;20048;-73
2022/09/21 14:26:39;;;;;;;1.50;0.77;;;19.50;80.40;;;;;;5051891;28;20037;-73